createdAt,value
2022-12-05T00:03:26.212Z,1.79
2022-12-05T00:07:08.935Z,1.79
2022-12-05T00:10:54.165Z,1.85
2022-12-05T00:14:37.160Z,1.85
2022-12-05T00:18:21.497Z,1.82
2022-12-05T00:22:04.478Z,1.78
2022-12-05T00:25:47.237Z,1.77
2022-12-05T00:29:30.053Z,1.79
2022-12-05T00:33:13.013Z,1.80
2022-12-05T00:36:57.366Z,1.86
2022-12-05T00:40:40.230Z,1.90
2022-12-05T00:44:23.020Z,1.90
2022-12-05T00:48:06.644Z,1.88
2022-12-05T00:51:49.412Z,1.86
2022-12-05T00:55:33.743Z,1.82
2022-12-05T00:59:20.940Z,1.83
2022-12-05T01:03:03.866Z,1.87
2022-12-05T01:06:46.960Z,1.95
2022-12-05T01:10:29.819Z,1.98
2022-12-05T01:14:15.970Z,1.99
2022-12-05T01:17:59.031Z,1.97
2022-12-05T01:21:57.074Z,1.99
2022-12-05T01:25:41.336Z,1.88
2022-12-05T01:29:28.792Z,1.83
2022-12-05T01:33:11.948Z,1.69
2022-12-05T01:37:01.411Z,1.66
2022-12-05T01:40:47.137Z,1.57
2022-12-05T01:45:04.023Z,1.62
2022-12-05T01:48:47.033Z,1.62
2022-12-05T01:52:31.353Z,1.64
2022-12-05T01:56:14.743Z,1.64
2022-12-05T02:00:01.921Z,1.62
2022-12-05T02:03:47.978Z,1.63
2022-12-05T02:07:31.289Z,1.64
2022-12-05T02:11:14.484Z,1.73
2022-12-05T02:15:21.894Z,1.59
2022-12-05T02:19:31.598Z,1.56
2022-12-05T02:23:27.455Z,1.52
2022-12-05T02:27:22.679Z,1.50
2022-12-05T02:31:09.939Z,1.44
2022-12-05T02:34:59.618Z,1.40
2022-12-05T02:38:46.543Z,1.38
2022-12-05T02:42:33.707Z,1.39
2022-12-05T02:46:19.094Z,1.31
2022-12-05T02:50:02.557Z,1.15
2022-12-05T02:53:47.032Z,1.10
2022-12-05T02:57:30.092Z,1.02
2022-12-05T03:01:13.536Z,1.00
2022-12-05T03:04:59.910Z,1.03
2022-12-05T03:08:46.158Z,1.05
2022-12-05T03:12:31.997Z,1.07
2022-12-05T03:16:17.919Z,1.24
2022-12-05T03:20:06.626Z,1.17
2022-12-05T03:23:52.763Z,1.16
2022-12-05T03:27:41.366Z,1.24
2022-12-05T03:31:32.475Z,1.23
2022-12-05T03:35:22.013Z,1.29
2022-12-05T03:39:08.734Z,1.24
2022-12-05T03:42:56.182Z,1.19
2022-12-05T03:46:41.481Z,1.19
2022-12-05T03:50:28.861Z,1.21
2022-12-05T03:54:15.749Z,1.20
2022-12-05T03:58:00.986Z,1.26
2022-12-05T04:01:44.858Z,1.24
2022-12-05T04:05:32.187Z,1.22
2022-12-05T04:09:18.498Z,1.29
2022-12-05T04:13:17.656Z,1.35
2022-12-05T04:17:04.787Z,1.32
2022-12-05T04:21:06.994Z,1.40
2022-12-05T04:25:08.163Z,1.38
2022-12-05T04:28:54.390Z,1.36
2022-12-05T04:32:41.642Z,1.41
2022-12-05T04:36:28.360Z,1.53
2022-12-05T04:40:15.174Z,1.57
2022-12-05T04:44:01.203Z,1.55
2022-12-05T04:47:46.316Z,1.56
2022-12-05T04:51:35.321Z,1.60
2022-12-05T04:55:25.787Z,1.61
2022-12-05T04:59:08.699Z,1.60
2022-12-05T05:02:56.183Z,1.73
2022-12-05T05:06:40.809Z,1.72
2022-12-05T05:10:28.284Z,1.72
2022-12-05T05:14:11.152Z,1.71
2022-12-05T05:17:53.845Z,1.70
2022-12-05T05:21:38.659Z,1.75
2022-12-05T05:25:23.731Z,1.80
2022-12-05T05:29:06.759Z,1.88
2022-12-05T05:32:51.600Z,1.92
2022-12-05T05:36:39.457Z,1.94
2022-12-05T05:40:23.671Z,2.03
2022-12-05T05:44:06.812Z,2.07
2022-12-05T05:47:52.338Z,2.14
2022-12-05T05:51:35.323Z,2.25
2022-12-05T05:55:18.427Z,2.30
2022-12-05T05:59:04.609Z,2.32
2022-12-05T06:02:47.541Z,2.31
2022-12-05T06:06:30.384Z,2.35
2022-12-05T06:10:13.239Z,2.33
2022-12-05T06:13:56.622Z,2.38
2022-12-05T06:17:40.746Z,2.43
2022-12-05T06:21:24.007Z,2.47
2022-12-05T06:25:07.859Z,2.46
2022-12-05T06:28:50.690Z,2.49
2022-12-05T06:32:41.154Z,2.52
2022-12-05T06:36:25.378Z,2.58
2022-12-05T06:40:12.198Z,2.59
2022-12-05T06:44:01.360Z,2.59
2022-12-05T06:47:44.966Z,2.66
2022-12-05T06:51:29.149Z,2.69
2022-12-05T06:55:12.023Z,2.73
2022-12-05T06:58:55.639Z,2.73
2022-12-05T07:02:38.466Z,2.77
2022-12-05T07:06:21.268Z,2.83
2022-12-05T07:10:06.692Z,2.84
2022-12-05T07:13:51.945Z,2.85
2022-12-05T07:17:39.178Z,2.90
2022-12-05T07:21:23.437Z,2.90
2022-12-05T07:25:08.540Z,2.90
2022-12-05T07:28:52.163Z,2.94
2022-12-05T07:32:35.575Z,2.99
2022-12-05T07:36:24.146Z,3.02
2022-12-05T07:40:09.650Z,3.02
2022-12-05T07:43:52.682Z,3.07
2022-12-05T07:47:37.937Z,3.11
2022-12-05T07:51:21.767Z,3.17
2022-12-05T07:55:04.820Z,3.20
2022-12-05T07:58:51.931Z,3.26
2022-12-05T08:02:38.885Z,3.31
2022-12-05T08:06:24.568Z,3.37
2022-12-05T08:10:08.850Z,3.41
2022-12-05T08:13:53.101Z,3.45
2022-12-05T08:17:35.845Z,3.44
2022-12-05T08:21:20.483Z,3.45
2022-12-05T08:25:06.617Z,3.49
2022-12-05T08:28:54.278Z,3.57
2022-12-05T08:32:37.172Z,3.67
2022-12-05T08:36:20.608Z,3.74
2022-12-05T08:40:13.644Z,3.80
2022-12-05T08:44:03.009Z,3.89
2022-12-05T08:47:45.926Z,3.97
2022-12-05T08:51:28.729Z,4.01
2022-12-05T08:55:20.854Z,4.02
2022-12-05T08:59:06.192Z,4.03
2022-12-05T09:02:51.794Z,4.04
2022-12-05T09:06:35.710Z,4.04
2022-12-05T09:10:27.529Z,4.02
2022-12-05T09:14:12.137Z,4.05
2022-12-05T09:17:54.892Z,4.05
2022-12-05T09:21:37.713Z,4.05
2022-12-05T09:25:33.450Z,4.02
2022-12-05T09:29:18.273Z,4.04
2022-12-05T09:33:01.223Z,4.02
2022-12-05T09:36:44.103Z,4.03
2022-12-05T09:40:58.962Z,4.01
2022-12-05T09:45:02.810Z,3.98
2022-12-05T09:48:47.497Z,3.96
2022-12-05T09:52:32.214Z,3.96
2022-12-05T09:56:23.844Z,3.96
2022-12-05T10:00:13.360Z,4.00
2022-12-05T10:04:08.805Z,3.98
2022-12-05T10:07:57.213Z,4.01
2022-12-05T10:11:43.278Z,4.02
2022-12-05T10:15:32.865Z,4.00
2022-12-05T10:19:19.427Z,4.01
2022-12-05T10:23:05.446Z,4.07
2022-12-05T10:26:55.338Z,4.16
2022-12-05T10:30:42.163Z,4.20
2022-12-05T10:34:34.921Z,4.13
2022-12-05T10:38:24.425Z,4.22
2022-12-05T10:42:08.579Z,4.31
2022-12-05T10:45:52.801Z,4.41
2022-12-05T10:49:36.153Z,4.42
2022-12-05T10:53:21.232Z,4.48
2022-12-05T10:57:22.677Z,4.52
2022-12-05T11:01:14.685Z,4.61
2022-12-05T11:04:59.446Z,4.62
2022-12-05T11:09:03.764Z,4.69
2022-12-05T11:12:46.073Z,4.68
2022-12-05T11:16:33.179Z,4.73
2022-12-05T11:20:38.412Z,4.79
2022-12-05T11:24:27.894Z,4.85
2022-12-05T11:28:31.264Z,4.91
2022-12-05T11:32:21.180Z,4.94
2022-12-05T11:36:13.127Z,4.96
2022-12-05T11:39:58.531Z,5.00
2022-12-05T11:43:57.592Z,5.00
2022-12-05T11:47:54.613Z,5.12
2022-12-05T11:51:40.433Z,5.19
2022-12-05T11:55:26.223Z,5.28
2022-12-05T11:59:27.416Z,5.32
2022-12-05T12:03:45.632Z,5.37
2022-12-05T12:07:59.398Z,5.38
2022-12-05T12:11:46.403Z,5.37
2022-12-05T12:15:43.634Z,5.22
2022-12-05T12:19:36.625Z,5.20
2022-12-05T12:23:36.447Z,5.21
2022-12-05T12:27:30.608Z,5.17
2022-12-05T12:31:32.971Z,5.02
2022-12-05T12:35:31.934Z,4.94
2022-12-05T12:39:24.950Z,4.89
2022-12-05T12:43:44.777Z,4.93
2022-12-05T12:47:24.980Z,4.98
2022-12-05T12:51:12.969Z,4.93
2022-12-05T12:55:17.854Z,4.91
2022-12-05T12:59:06.950Z,4.86
2022-12-05T13:02:52.905Z,4.85
2022-12-05T13:06:39.238Z,4.84
2022-12-05T13:10:27.639Z,4.83
2022-12-05T13:14:13.521Z,4.79
2022-12-05T13:17:56.441Z,4.72
2022-12-05T13:21:39.420Z,4.66
2022-12-05T13:25:36.061Z,4.55
2022-12-05T13:29:22.689Z,4.49
2022-12-05T13:33:08.269Z,4.49
2022-12-05T13:37:08.563Z,4.45
2022-12-05T13:41:11.680Z,4.35
2022-12-05T13:44:56.958Z,4.36
2022-12-05T13:48:42.521Z,4.30
2022-12-05T13:52:27.817Z,4.23
2022-12-05T13:56:27.978Z,4.17
2022-12-05T14:00:29.092Z,4.16
2022-12-05T14:05:09.907Z,4.06
2022-12-05T14:08:55.220Z,4.02
2022-12-05T14:12:57.615Z,4.21
2022-12-05T14:16:45.461Z,4.19
2022-12-05T14:20:33.988Z,4.21
2022-12-05T14:24:21.005Z,4.14
2022-12-05T14:28:20.719Z,4.16
2022-12-05T14:32:12.717Z,4.17
2022-12-05T14:36:06.329Z,4.23
2022-12-05T14:39:52.140Z,4.28
2022-12-05T14:43:36.461Z,4.15
2022-12-05T14:47:23.263Z,4.07
2022-12-05T14:51:47.817Z,4.06
2022-12-05T14:55:32.005Z,4.03
2022-12-05T14:59:24.367Z,4.04
2022-12-05T15:03:12.055Z,4.13
2022-12-05T15:06:57.046Z,4.03
2022-12-05T15:10:41.274Z,3.94
2022-12-05T15:14:31.087Z,3.94
2022-12-05T15:18:20.203Z,3.94
2022-12-05T15:22:07.712Z,3.95
2022-12-05T15:25:57.298Z,3.99
2022-12-05T15:29:45.070Z,3.98
2022-12-05T15:33:30.231Z,4.01
2022-12-05T15:37:15.629Z,3.98
2022-12-05T15:40:59.983Z,3.90
2022-12-05T15:44:45.710Z,3.81
2022-12-05T15:48:31.417Z,3.77
2022-12-05T15:52:26.550Z,3.78
2022-12-05T15:56:15.185Z,3.84
2022-12-05T16:00:05.920Z,3.80
2022-12-05T16:03:54.176Z,3.79
2022-12-05T16:07:37.120Z,3.78
2022-12-05T16:11:21.631Z,3.74
2022-12-05T16:15:07.169Z,3.81
2022-12-05T16:18:51.264Z,3.79
2022-12-05T16:22:34.464Z,3.70
2022-12-05T16:26:22.300Z,3.68
2022-12-05T16:30:10.971Z,3.71
2022-12-05T16:34:01.824Z,3.74
2022-12-05T16:37:44.551Z,3.81
2022-12-05T16:41:35.882Z,3.85
2022-12-05T16:45:39.639Z,3.91
2022-12-05T16:49:46.380Z,3.91
2022-12-05T16:53:32.531Z,3.88
2022-12-05T16:57:17.602Z,3.80
2022-12-05T17:01:02.654Z,3.76
2022-12-05T17:04:46.848Z,3.76
2022-12-05T17:08:29.770Z,3.82
2022-12-05T17:12:19.283Z,3.86
2022-12-05T17:16:04.953Z,3.91
2022-12-05T17:19:50.145Z,3.93
2022-12-05T17:23:32.874Z,3.80
2022-12-05T17:27:19.721Z,3.76
2022-12-05T17:31:02.506Z,3.77
2022-12-05T17:34:45.526Z,3.71
2022-12-05T17:38:28.274Z,3.61
2022-12-05T17:42:10.985Z,3.58
2022-12-05T17:45:55.664Z,3.55
2022-12-05T17:49:38.412Z,3.54
2022-12-05T17:53:22.075Z,3.51
2022-12-05T17:57:04.807Z,3.48
2022-12-05T18:00:50.368Z,3.47
2022-12-05T18:04:34.458Z,3.44
2022-12-05T18:08:17.997Z,3.38
2022-12-05T18:12:00.888Z,3.36
2022-12-05T18:15:46.807Z,3.30
2022-12-05T18:19:29.586Z,3.23
2022-12-05T18:23:13.872Z,3.20
2022-12-05T18:26:58.094Z,3.08
2022-12-05T18:30:41.612Z,3.02
2022-12-05T18:34:25.785Z,2.99
2022-12-05T18:38:08.887Z,2.98
2022-12-05T18:41:52.985Z,2.96
2022-12-05T18:45:36.084Z,2.91
2022-12-05T18:49:18.883Z,2.92
2022-12-05T18:53:04.096Z,2.87
2022-12-05T18:56:50.224Z,2.88
2022-12-05T19:00:36.216Z,2.73
2022-12-05T19:04:22.347Z,2.63
2022-12-05T19:08:05.848Z,2.57
2022-12-05T19:11:51.446Z,2.59
2022-12-05T19:15:37.193Z,2.58
2022-12-05T19:19:21.469Z,2.57
2022-12-05T19:23:04.268Z,2.53
2022-12-05T19:26:48.039Z,2.56
2022-12-05T19:30:30.760Z,2.54
2022-12-05T19:34:15.283Z,2.58
2022-12-05T19:37:58.134Z,2.64
2022-12-05T19:41:40.970Z,2.59
2022-12-05T19:45:27.302Z,2.62
2022-12-05T19:49:12.669Z,2.65
2022-12-05T19:52:56.869Z,2.70
2022-12-05T19:56:40.446Z,2.71
2022-12-05T20:00:23.411Z,2.72
2022-12-05T20:04:08.527Z,2.75
2022-12-05T20:07:53.280Z,2.71
2022-12-05T20:11:39.613Z,2.67
2022-12-05T20:15:22.589Z,2.66
2022-12-05T20:19:05.642Z,2.69
2022-12-05T20:22:48.349Z,2.66
2022-12-05T20:26:32.719Z,2.69
2022-12-05T20:30:16.970Z,2.63
2022-12-05T20:33:59.808Z,2.54
2022-12-05T20:37:55.369Z,2.51
2022-12-05T20:41:38.119Z,2.44
2022-12-05T20:45:22.260Z,2.43
2022-12-05T20:49:05.101Z,2.44
2022-12-05T20:52:58.269Z,2.42
2022-12-05T20:56:41.799Z,2.39
2022-12-05T21:00:25.935Z,2.36
2022-12-05T21:04:09.242Z,2.31
2022-12-05T21:08:03.069Z,2.33
2022-12-05T21:11:45.996Z,3.35
2022-12-05T21:15:30.055Z,3.22
2022-12-05T21:19:12.816Z,3.03
2022-12-05T21:23:13.961Z,2.88
2022-12-05T21:26:57.339Z,2.76
2022-12-05T21:30:41.533Z,2.72
2022-12-05T21:34:24.286Z,2.71
2022-12-05T21:38:14.697Z,2.65
2022-12-05T21:41:58.240Z,2.64
2022-12-05T21:45:44.982Z,2.60
2022-12-05T21:49:29.593Z,2.57
2022-12-05T21:57:33.472Z,2.57
2022-12-05T22:01:27.162Z,2.53
2022-12-05T22:05:10.792Z,2.57
2022-12-05T22:08:55.304Z,2.52
2022-12-05T22:12:38.340Z,2.51
2022-12-05T22:16:32.339Z,2.51
2022-12-05T22:20:18.211Z,2.51
2022-12-05T22:24:04.886Z,2.50
2022-12-05T22:27:47.637Z,2.48
2022-12-05T22:31:34.474Z,2.46
2022-12-05T22:35:17.944Z,2.48
2022-12-05T22:39:05.933Z,2.49
2022-12-05T22:42:48.716Z,2.52
2022-12-05T22:46:32.822Z,2.53
2022-12-05T22:50:18.229Z,2.58
2022-12-05T22:54:03.382Z,2.61
2022-12-05T22:57:46.282Z,2.64
2022-12-05T23:01:34.777Z,2.67
2022-12-05T23:05:19.202Z,2.68
2022-12-05T23:09:05.335Z,2.69
2022-12-05T23:12:48.131Z,2.74
2022-12-05T23:16:32.667Z,2.76
2022-12-05T23:20:21.317Z,2.78
2022-12-05T23:24:09.097Z,2.77
2022-12-05T23:27:51.867Z,2.79
2022-12-05T23:31:36.564Z,2.80
2022-12-05T23:35:22.616Z,2.82
2022-12-05T23:39:19.979Z,2.77
2022-12-05T23:43:02.774Z,2.74
2022-12-05T23:46:49.214Z,2.73
2022-12-05T23:50:36.541Z,2.76
2022-12-05T23:54:20.725Z,2.75
2022-12-05T23:58:03.664Z,2.75
